Port O'Connor, TX (77982)

4:08 PM CST on February 22, 2017 (GMT -0600)
| | Change Station
Active Advisory: Flood Warning

Elev -9999 ft 0.00 °N, 0.00 °E | Updated 6 minutes ago

Clear
Clear
°F
Feels Like °F
N
Wind Variable Wind from North
Gusts mph

Today
High -- | Low -- °F
--% Chance of Precip.
Yesterday
High -- | Low -- °F
Precip. -- in
Pressure 29.82 in
Visibility 10.0 miles
Clouds Clear
Dew Point Not available.
Humidity Not available.
Rainfall --
Snow Depth Not available.
6:57 AM 6:21 PM
Waning Crescent, 15% visible
METAR KPKV 222155Z AUTO 00000KT 10SM CLR 28/10 A2982 RMK AO2 T02790100
Pressure 29.82 in
Visibility 10.0 miles
Clouds Clear
Dew Point Not available.
Humidity Not available.
Rainfall --
Snow Depth Not available.
6:57 AM 6:21 PM
Waning Crescent, 15% visible
METAR KPKV 222155Z AUTO 00000KT 10SM CLR 28/10 A2982 RMK AO2 T02790100

Get Your Daily Forecast Email!

Thanks for signing up!

Be on the lookout for a verification email in your inbox.

You'll start receiving the daily forecast at 8 AM.

×

10-Day Weather Forecast

Almanac

Astronomy

Feb. 22, 2017 Rise Set
Actual Time
Civil Twilight
Nautical Twilight
Astronomical Twilight
Moon
Length of Visible Light
Length of Day
Tomorrow will be .
, % of the Moon is Illuminated

Today's Extremes

State Highs State Lows

Community

WunderPhotos

Upload Photos

1,962,540 photos uploaded!

WunderBlog® & News

Nearby

Air Quality

  Air Quality AQ Index Pollutant
Not available.

Snow Depth

Station Depth Elevation

Earthquake Activity

City Distance Mag. Time & Date
Minimum magnitude displayed is 2.5.

Coastal Water Temperatures

Place Temperature

Stations

Nearby Weather Stations

Station Location Temp. Windchill Dew Point Humidity Wind Precip. Elev Updated Type
                   

Watches & Warnings

Flood Warning
Issued: 9:12 AM CST Feb. 22, 2017 – National Weather Service

... Flood Warning extended until Sunday evening... the Flood Warning
continues for the Guadalupe River near Bloomington.
* Until Sunday evening... or until the warning is cancelled.
* At 8:00 am Wednesday the stage was 19.5 feet.
* Minor flooding is forecast.
* Flood stage is 20.0 feet.
* Forecast: river to rise above flood stage by Thursday afternoon and
continue to rise to near 21.7 feet by Friday evening. The river
will then begin to fall and go below flood stage by early
Sunday morning.
* At 20.0 feet minor lowland flooding occurs, with the flow reaching
the right flood plain near the invista plant near Bloomington.
Downstream above Highway 35, the flow escapes into the left flood
plain cutting off the lowest homes.


Below are the latest river stages and stage forecasts:

                      fld latest forecast 6 am lst
location stg stg day time Thu Fri Sat sun Mon

Guadalupe River
Bloomington 20 19.5 Wed 08 am 18.7 21.4 21.4 19.7 17.9


Lat... Lon 2869 9704 2869 9698 2867 9695 2857 9688
      2845 9680 2843 9685


Kw